Time;durP1;ratioP1;P1;durP2;ratioP2;P2;SDS_P1;SDS_P2;PMS_P1;PMS_P2;Temp;Humidity;BMP_temperature;BMP_pressure;BME280_temperature;BME280_humidity;BME280_pressure;Samples;Min_cycle;Max_cycle;Signal;HPM_P1;HPM_P2
2022/11/24 02:12:12;;;;;;;;;;;23.30;49.40;;;;;;6119736;23;19967;-79
2022/11/24 02:14:39;;;;;;;;;;;23.30;48.40;;;;;;6123408;23;19909;-78
2022/11/24 02:17:05;;;;;;;;;;;23.40;49.50;;;;;;6124751;23;20380;-79
2022/11/24 02:19:35;;;;;;;;;;;23.50;48.00;;;;;;6124738;23;19940;-78
2022/11/24 02:22:01;;;;;;;;;;;23.50;49.10;;;;;;6125386;23;20339;-79
2022/11/24 02:24:28;;;;;;;;;;;23.40;47.90;;;;;;6098565;23;19987;-77
2022/11/24 02:26:55;;;;;;;;;;;23.30;49.10;;;;;;6124903;23;19928;-79
2022/11/24 02:29:22;;;;;;;;;;;23.40;50.20;;;;;;6124912;23;19905;-77
2022/11/24 02:31:52;;;;;;;;;;;23.30;48.50;;;;;;6123736;23;19920;-78
2022/11/24 02:34:19;;;;;;;;;;;23.40;49.90;;;;;;6120412;23;19960;-78
2022/11/24 02:36:46;;;;;;;;;;;23.40;49.10;;;;;;6116645;23;20003;-76
2022/11/24 02:39:12;;;;;;;;;;;23.40;48.40;;;;;;6122449;23;19905;-77
2022/11/24 02:41:42;;;;;;;;;;;23.50;50.30;;;;;;6124244;23;20283;-77
2022/11/24 02:44:13;;;;;;;;;;;23.60;52.50;;;;;;6099105;23;20609;-77
2022/11/24 02:46:40;;;;;;;;;;;23.50;53.00;;;;;;6123737;23;19964;-77
2022/11/24 02:49:06;;;;;;;;;;;23.50;53.70;;;;;;6074818;23;19952;-76
2022/11/24 02:51:36;;;;;;;;;;;23.40;52.80;;;;;;6123998;23;19924;-77
2022/11/24 02:54:02;;;;;;;;;;;23.40;53.20;;;;;;6124316;23;19905;-76
2022/11/24 02:56:29;;;;;;;;;;;23.40;54.00;;;;;;6124883;23;20218;-76
2022/11/24 02:58:56;;;;;;;;;;;23.50;54.00;;;;;;6098535;23;20032;-76
2022/11/24 03:01:22;;;;;;;;;;;23.50;53.50;;;;;;6124794;23;19943;-77
2022/11/24 03:03:49;;;;;;;;;;;23.50;53.90;;;;;;6124494;23;20360;-77
2022/11/24 03:06:15;;;;;;;;;;;23.50;54.00;;;;;;6123771;23;19980;-77
2022/11/24 03:08:42;;;;;;;;;;;23.50;53.70;;;;;;6124736;23;19979;-76
2022/11/24 03:11:10;;;;;;;;;;;23.40;50.80;;;;;;6124277;23;19920;-76
2022/11/24 03:13:36;;;;;;;;;;;23.40;50.50;;;;;;6122988;23;19917;-76
2022/11/24 03:16:05;;;;;;;;;;;23.40;52.70;;;;;;6123919;23;20269;-76
2022/11/24 03:18:31;;;;;;;;;;;23.40;52.10;;;;;;6098947;23;19912;-76
2022/11/24 03:21:01;;;;;;;;;;;23.40;52.60;;;;;;6126068;23;19905;-76
2022/11/24 03:23:27;;;;;;;;;;;23.40;51.40;;;;;;6126742;23;19909;-77
2022/11/24 03:25:54;;;;;;;;;;;23.30;51.40;;;;;;6126832;23;19976;-77
2022/11/24 03:28:20;;;;;;;;;;;23.30;51.90;;;;;;6126817;23;20308;-77
2022/11/24 03:30:50;;;;;;;;;;;23.40;51.20;;;;;;6127237;23;19909;-77
2022/11/24 03:33:16;;;;;;;;;;;23.30;50.40;;;;;;6126865;23;19917;-76
2022/11/24 03:35:43;;;;;;;;;;;23.40;49.80;;;;;;6126748;23;19905;-77
2022/11/24 03:38:10;;;;;;;;;;;23.30;50.40;;;;;;6124954;23;19909;-77
2022/11/24 03:40:36;;;;;;;;;;;23.30;49.70;;;;;;6100447;23;19909;-77
2022/11/24 04:08:22;;;;;;;;;;;23.30;47.70;;;;;;6121572;23;19931;-78
2022/11/24 04:10:49;;;;;;;;;;;23.10;47.70;;;;;;6125187;23;20333;-74
2022/11/24 04:13:16;;;;;;;;;;;23.10;49.30;;;;;;6126303;23;20031;-77
2022/11/24 04:15:43;;;;;;;;;;;23.30;49.60;;;;;;6098894;23;20343;-76
2022/11/24 04:18:10;;;;;;;;;;;23.20;48.60;;;;;;6124572;23;19952;-76
2022/11/24 04:20:36;;;;;;;;;;;23.10;48.00;;;;;;6125414;23;20217;-78
2022/11/24 04:23:03;;;;;;;;;;;23.10;48.90;;;;;;6125245;23;19909;-77
2022/11/24 04:25:30;;;;;;;;;;;23.10;48.50;;;;;;6125171;23;19937;-76
2022/11/24 04:27:56;;;;;;;;;;;23.00;50.80;;;;;;6125850;23;20359;-77
2022/11/24 04:30:23;;;;;;;;;;;23.00;50.90;;;;;;6124489;23;19905;-77
2022/11/24 04:32:50;;;;;;;;;;;23.10;50.90;;;;;;6125716;23;19913;-76
2022/11/24 04:35:17;;;;;;;;;;;23.10;51.70;;;;;;6125707;23;20218;-75
2022/11/24 04:37:43;;;;;;;;;;;23.00;51.10;;;;;;6123812;23;20308;-76
2022/11/24 04:40:10;;;;;;;;;;;23.10;54.60;;;;;;6124812;23;19913;-74
2022/11/24 04:42:36;;;;;;;;;;;23.10;54.20;;;;;;6125633;23;19912;-77
2022/11/24 04:45:03;;;;;;;;;;;23.10;55.10;;;;;;6125692;23;19905;-75
2022/11/24 04:47:30;;;;;;;;;;;23.10;55.60;;;;;;6124307;23;20032;-77
2022/11/24 04:49:57;;;;;;;;;;;23.10;57.10;;;;;;6125505;23;19911;-78
2022/11/24 04:52:23;;;;;;;;;;;23.00;56.20;;;;;;6125994;23;20351;-78
2022/11/24 04:54:50;;;;;;;;;;;23.00;57.40;;;;;;6125961;23;19956;-76
2022/11/24 04:57:20;;;;;;;;;;;23.10;58.40;;;;;;6125626;23;19905;-77
2022/11/24 04:59:47;;;;;;;;;;;23.10;57.90;;;;;;6099317;23;19932;-78
2022/11/24 05:02:13;;;;;;;;;;;23.10;58.10;;;;;;6099378;23;19939;-79
2022/11/24 05:04:40;;;;;;;;;;;23.00;57.50;;;;;;6125730;23;19983;-78
2022/11/24 05:07:07;;;;;;;;;;;23.10;57.50;;;;;;6125518;23;20218;-78
2022/11/24 05:09:33;;;;;;;;;;;23.10;56.50;;;;;;6125471;23;19913;-79
2022/11/24 05:12:00;;;;;;;;;;;23.10;55.60;;;;;;6099455;23;19913;-78
2022/11/24 05:14:27;;;;;;;;;;;23.00;57.20;;;;;;6125118;23;19936;-78
2022/11/24 05:16:53;;;;;;;;;;;23.00;58.00;;;;;;6096973;23;19920;-77
2022/11/24 05:19:20;;;;;;;;;;;22.90;59.50;;;;;;6124917;23;19909;-80
2022/11/24 05:21:47;;;;;;;;;;;23.00;60.70;;;;;;6124961;23;19913;-78
2022/11/24 05:24:13;;;;;;;;;;;23.00;62.90;;;;;;6125041;23;20316;-78
2022/11/24 05:26:40;;;;;;;;;;;22.90;62.40;;;;;;6099207;23;20041;-78
2022/11/24 05:29:06;;;;;;;;;;;23.00;63.60;;;;;;6123193;23;20036;-77
2022/11/24 05:31:33;;;;;;;;;;;22.90;63.00;;;;;;6120365;23;19923;-75
2022/11/24 05:33:59;;;;;;;;;;;22.90;63.00;;;;;;6119352;23;19916;-72
2022/11/24 06:11:24;;;;;;;;;;;22.50;68.00;;;;;;6114801;23;19999;-70
2022/11/24 06:13:50;;;;;;;;;;;22.40;68.70;;;;;;6120984;23;19924;-72
2022/11/24 06:16:16;;;;;;;;;;;22.40;68.40;;;;;;6121872;23;19972;-73
2022/11/24 06:18:43;;;;;;;;;;;22.30;69.00;;;;;;6121102;23;19912;-73
2022/11/24 06:21:09;;;;;;;;;;;22.30;68.40;;;;;;6121304;23;19956;-72
2022/11/24 06:23:36;;;;;;;;;;;22.30;67.90;;;;;;6120981;23;20337;-73
2022/11/24 06:26:03;;;;;;;;;;;22.20;67.70;;;;;;6121725;23;19909;-72
2022/11/24 06:28:29;;;;;;;;;;;22.30;68.60;;;;;;6096035;23;19912;-74
2022/11/24 06:30:59;;;;;;;;;;;22.20;68.70;;;;;;6121273;23;19913;-71
2022/11/24 06:33:26;;;;;;;;;;;22.10;68.50;;;;;;6121139;23;20214;-73
2022/11/24 06:35:52;;;;;;;;;;;22.10;68.90;;;;;;6121448;23;19916;-75
2022/11/24 06:38:19;;;;;;;;;;;22.10;68.40;;;;;;6097261;23;19909;-78
2022/11/24 06:40:45;;;;;;;;;;;21.90;66.20;;;;;;6123660;23;19905;-75
2022/11/24 06:43:14;;;;;;;;;;;21.70;65.70;;;;;;6121226;23;19905;-76
2022/11/24 06:45:40;;;;;;;;;;;21.80;67.50;;;;;;6124140;23;19959;-76
2022/11/24 06:48:07;;;;;;;;;;;21.80;66.80;;;;;;6124535;23;19916;-77
2022/11/24 06:50:34;;;;;;;;;;;21.80;67.60;;;;;;6120319;23;19905;-75
2022/11/24 06:53:01;;;;;;;;;;;21.70;68.40;;;;;;6117662;23;19944;-76
2022/11/24 06:55:27;;;;;;;;;;;21.70;69.00;;;;;;6119156;23;19912;-75
2022/11/24 06:57:54;;;;;;;;;;;21.70;69.80;;;;;;6123266;23;20340;-79
2022/11/24 07:00:21;;;;;;;;;;;21.70;68.80;;;;;;6123558;23;19924;-68
2022/11/24 07:02:47;;;;;;;;;;;21.60;68.70;;;;;;6124186;23;19917;-68
2022/11/24 07:05:14;;;;;;;;;;;21.60;70.20;;;;;;6124403;23;19913;-71
2022/11/24 07:07:40;;;;;;;;;;;21.70;70.10;;;;;;6122384;23;20032;-69
2022/11/24 07:10:07;;;;;;;;;;;21.70;70.00;;;;;;6095709;23;20365;-71
2022/11/24 07:12:34;;;;;;;;;;;21.70;69.90;;;;;;6123621;23;19920;-72
2022/11/24 07:15:00;;;;;;;;;;;21.70;69.80;;;;;;6123706;23;19952;-71
2022/11/24 07:17:27;;;;;;;;;;;21.70;70.20;;;;;;6123380;23;19905;-70
2022/11/24 07:19:54;;;;;;;;;;;21.70;70.10;;;;;;6123509;23;19971;-71
2022/11/24 07:22:20;;;;;;;;;;;21.60;69.70;;;;;;6123353;23;19913;-71
2022/11/24 07:24:47;;;;;;;;;;;21.60;69.50;;;;;;6123984;23;19905;-71
2022/11/24 07:27:13;;;;;;;;;;;21.50;70.20;;;;;;6122745;23;20244;-71
2022/11/24 07:29:40;;;;;;;;;;;21.50;69.20;;;;;;6095778;23;20506;-72
2022/11/24 07:32:07;;;;;;;;;;;21.50;69.30;;;;;;6123679;23;19996;-78
2022/11/24 07:34:33;;;;;;;;;;;21.50;69.90;;;;;;6124794;23;19981;-76
2022/11/24 07:37:00;;;;;;;;;;;21.40;70.40;;;;;;6124631;23;19911;-76
2022/11/24 07:39:26;;;;;;;;;;;21.40;70.10;;;;;;6126338;23;20383;-76
2022/11/24 07:41:53;;;;;;;;;;;21.40;70.30;;;;;;6100567;23;19952;-76
2022/11/24 07:44:20;;;;;;;;;;;21.30;70.50;;;;;;6126381;23;19909;-78
2022/11/24 07:46:48;;;;;;;;;;;21.30;70.70;;;;;;6126389;23;19909;-77
2022/11/24 07:49:15;;;;;;;;;;;21.30;71.10;;;;;;6126417;23;19983;-75
2022/11/24 07:51:42;;;;;;;;;;;21.30;71.40;;;;;;6126584;23;19913;-76
2022/11/24 07:54:08;;;;;;;;;;;21.30;71.10;;;;;;6126802;23;19905;-76
2022/11/24 07:56:35;;;;;;;;;;;21.20;70.70;;;;;;6126376;23;20320;-75
2022/11/24 07:59:02;;;;;;;;;;;21.20;70.30;;;;;;6100036;23;19956;-75
2022/11/24 08:01:28;;;;;;;;;;;21.20;70.80;;;;;;6126132;23;20289;-75
2022/11/24 08:03:55;;;;;;;;;;;21.20;71.00;;;;;;6126748;23;19909;-75
2022/11/24 08:06:22;;;;;;;;;;;21.20;71.60;;;;;;6124560;23;20336;-75
2022/11/24 08:08:48;;;;;;;;;;;21.20;72.00;;;;;;6126003;23;19905;-75
2022/11/24 08:11:15;;;;;;;;;;;21.20;72.00;;;;;;6100433;23;19916;-75
2022/11/24 08:13:42;;;;;;;;;;;21.10;72.50;;;;;;6100614;23;20592;-75
2022/11/24 08:16:09;;;;;;;;;;;21.10;73.00;;;;;;6126111;23;19940;-75
2022/11/24 08:18:36;;;;;;;;;;;21.00;72.90;;;;;;6125918;23;19905;-75
2022/11/24 08:21:03;;;;;;;;;;;20.90;73.30;;;;;;6126058;23;19928;-75
2022/11/24 08:23:29;;;;;;;;;;;21.00;73.30;;;;;;6126482;23;19905;-75
2022/11/24 08:25:59;;;;;;;;;;;20.90;73.20;;;;;;6126420;23;19912;-75
2022/11/24 08:28:25;;;;;;;;;;;20.90;73.00;;;;;;6126242;23;20244;-75
2022/11/24 08:30:52;;;;;;;;;;;20.80;73.30;;;;;;6126257;23;19931;-75
2022/11/24 08:33:19;;;;;;;;;;;20.80;73.70;;;;;;6126641;23;19905;-75
2022/11/24 08:35:45;;;;;;;;;;;20.80;73.40;;;;;;6126331;23;20244;-75
2022/11/24 08:38:12;;;;;;;;;;;20.80;73.70;;;;;;6123995;23;19912;-75
2022/11/24 08:40:39;;;;;;;;;;;20.80;73.50;;;;;;6126172;23;19940;-75
2022/11/24 08:43:05;;;;;;;;;;;20.80;73.70;;;;;;6126079;23;20395;-75
2022/11/24 08:45:32;;;;;;;;;;;20.70;73.80;;;;;;6125936;23;20249;-75
2022/11/24 08:47:58;;;;;;;;;;;20.70;74.20;;;;;;6125683;23;19913;-75
2022/11/24 08:50:25;;;;;;;;;;;20.70;74.10;;;;;;6126154;23;19941;-75
2022/11/24 08:52:52;;;;;;;;;;;20.70;74.30;;;;;;6125988;23;19913;-75
2022/11/24 08:55:19;;;;;;;;;;;20.70;74.60;;;;;;6125963;23;20393;-75
2022/11/24 08:57:45;;;;;;;;;;;20.70;74.30;;;;;;6126296;23;19960;-76
2022/11/24 09:00:12;;;;;;;;;;;20.70;73.80;;;;;;6126010;23;20292;-75
2022/11/24 09:02:41;;;;;;;;;;;20.70;73.80;;;;;;6125652;23;19905;-75
2022/11/24 09:05:07;;;;;;;;;;;20.60;73.90;;;;;;6125662;23;19905;-75
2022/11/24 09:07:34;;;;;;;;;;;20.60;73.80;;;;;;6097850;23;19913;-76
2022/11/24 09:10:01;;;;;;;;;;;20.60;74.20;;;;;;6125581;23;19940;-75
2022/11/24 09:12:27;;;;;;;;;;;20.60;74.20;;;;;;6125577;23;19921;-75
2022/11/24 09:14:54;;;;;;;;;;;20.60;74.40;;;;;;6126044;23;19984;-75
2022/11/24 09:17:21;;;;;;;;;;;20.50;74.90;;;;;;6125984;23;19964;-74
2022/11/24 09:19:47;;;;;;;;;;;20.50;75.00;;;;;;6125851;23;19906;-74
2022/11/24 09:22:14;;;;;;;;;;;20.50;75.20;;;;;;6125698;23;19912;-74
2022/11/24 09:24:40;;;;;;;;;;;20.50;74.70;;;;;;6099554;23;19909;-74
2022/11/24 09:27:07;;;;;;;;;;;20.50;74.90;;;;;;6125905;23;19980;-75
2022/11/24 09:29:33;;;;;;;;;;;20.50;75.00;;;;;;6125598;23;19932;-74
2022/11/24 09:32:00;;;;;;;;;;;20.50;75.20;;;;;;6125792;23;19917;-75
2022/11/24 09:34:27;;;;;;;;;;;20.50;74.80;;;;;;6125850;23;19908;-75
2022/11/24 09:36:54;;;;;;;;;;;20.40;75.10;;;;;;6123681;23;20343;-75
2022/11/24 09:39:21;;;;;;;;;;;20.40;75.30;;;;;;6099996;23;19908;-75
2022/11/24 09:42:05;;;;;;;;;;;20.30;75.60;;;;;;6125150;23;19908;-75
2022/11/24 09:44:45;;;;;;;;;;;20.30;75.60;;;;;;6125122;23;19905;-75
2022/11/24 09:47:20;;;;;;;;;;;20.30;75.80;;;;;;6124799;23;19959;-75
2022/11/24 09:49:52;;;;;;;;;;;20.30;75.30;;;;;;6125335;23;19912;-75
2022/11/24 09:52:26;;;;;;;;;;;20.40;74.70;;;;;;6125411;23;19920;-75
2022/11/24 09:54:57;;;;;;;;;;;20.40;74.50;;;;;;6099967;23;19928;-75
2022/11/24 09:57:23;;;;;;;;;;;20.40;74.80;;;;;;6099482;23;19912;-75
2022/11/24 09:59:50;;;;;;;;;;;20.40;75.20;;;;;;6099583;23;20240;-75
2022/11/24 10:02:16;;;;;;;;;;;20.40;75.10;;;;;;6099742;23;19905;-75
2022/11/24 10:04:44;;;;;;;;;;;20.50;75.10;;;;;;6125507;23;19915;-75
2022/11/24 10:07:29;;;;;;;;;;;20.50;75.30;;;;;;6097755;23;19912;-75
2022/11/24 10:10:13;;;;;;;;;;;20.50;75.20;;;;;;6125324;23;19936;-75
2022/11/24 10:12:58;;;;;;;;;;;20.40;75.10;;;;;;6125244;23;20090;-75
2022/11/24 10:15:33;;;;;;;;;;;20.50;75.30;;;;;;6125573;23;19920;-76
2022/11/24 10:18:05;;;;;;;;;;;20.40;75.40;;;;;;6099238;23;19905;-77
2022/11/24 10:20:47;;;;;;;;;;;20.40;75.40;;;;;;6124882;23;19905;-77
2022/11/24 10:23:14;;;;;;;;;;;20.40;75.20;;;;;;6125034;23;19905;-77
2022/11/24 10:25:51;;;;;;;;;;;20.40;75.60;;;;;;6125418;23;19908;-77
2022/11/24 10:28:17;;;;;;;;;;;20.30;75.70;;;;;;6099310;23;20317;-77
2022/11/24 10:30:44;;;;;;;;;;;20.30;75.90;;;;;;6124009;23;20309;-77
2022/11/24 10:33:21;;;;;;;;;;;20.30;76.00;;;;;;6124823;23;19909;-77
2022/11/24 10:35:49;;;;;;;;;;;20.30;76.20;;;;;;6097412;23;19912;-77
2022/11/24 10:38:22;;;;;;;;;;;20.30;76.10;;;;;;6122878;23;19924;-77
2022/11/24 10:40:52;;;;;;;;;;;20.30;75.90;;;;;;6122983;23;19963;-77
2022/11/24 10:43:19;;;;;;;;;;;20.30;75.70;;;;;;6122955;23;19933;-77
2022/11/24 10:45:46;;;;;;;;;;;20.30;75.90;;;;;;6122937;23;20332;-77
2022/11/24 10:48:23;;;;;;;;;;;20.30;75.80;;;;;;6123376;23;19909;-77
2022/11/24 10:50:50;;;;;;;;;;;20.30;75.70;;;;;;6098166;23;20321;-77
2022/11/24 10:53:24;;;;;;;;;;;20.30;76.00;;;;;;6099386;23;19913;-77
2022/11/24 10:55:54;;;;;;;;;;;20.30;75.90;;;;;;6099305;23;19984;-77
2022/11/24 10:58:30;;;;;;;;;;;20.30;75.60;;;;;;6124676;23;20355;-77
2022/11/24 11:00:58;;;;;;;;;;;20.30;75.40;;;;;;6125246;23;20364;-76
2022/11/24 11:03:26;;;;;;;;;;;20.30;75.80;;;;;;6125231;23;19909;-77
2022/11/24 11:05:57;;;;;;;;;;;20.20;75.90;;;;;;6125069;23;19911;-78
2022/11/24 11:08:24;;;;;;;;;;;20.20;75.70;;;;;;6099420;23;19940;-77
2022/11/24 11:11:11;;;;;;;;;;;20.20;75.70;;;;;;6124727;23;19932;-77
2022/11/24 15:50:52;;;;;;;;;;;19.40;81.10;;;;;;6123165;23;19921;-64
2022/11/24 15:53:22;;;;;;;;;;;19.50;81.40;;;;;;6100872;23;20249;-64
2022/11/24 15:55:49;;;;;;;;;;;19.40;81.60;;;;;;6126351;23;19987;-67
2022/11/24 15:58:15;;;;;;;;;;;19.40;81.70;;;;;;6101416;23;20226;-67
2022/11/24 16:00:42;;;;;;;;;;;19.40;81.80;;;;;;6101180;23;19905;-67
2022/11/24 16:03:09;;;;;;;;;;;19.30;81.90;;;;;;6127020;23;20244;-67
2022/11/24 16:05:39;;;;;;;;;;;19.30;82.10;;;;;;6100819;23;19905;-67
2022/11/24 16:08:06;;;;;;;;;;;19.30;82.20;;;;;;6101159;23;19905;-67
2022/11/24 16:10:33;;;;;;;;;;;19.30;82.20;;;;;;6101119;23;19905;-67
2022/11/24 16:12:59;;;;;;;;;;;19.30;82.40;;;;;;6101020;23;20013;-67
2022/11/24 16:15:26;;;;;;;;;;;19.30;82.40;;;;;;6126853;23;19968;-67
2022/11/24 16:17:52;;;;;;;;;;;19.30;82.50;;;;;;6126463;23;19928;-67
2022/11/24 16:20:19;;;;;;;;;;;19.30;82.60;;;;;;6126459;23;19913;-67
2022/11/24 16:22:46;;;;;;;;;;;19.30;82.50;;;;;;6126840;23;19916;-67
2022/11/24 16:25:12;;;;;;;;;;;19.30;82.70;;;;;;6101016;23;19905;-67
2022/11/24 16:27:39;;;;;;;;;;;19.30;82.90;;;;;;6100722;23;20233;-67
2022/11/24 16:30:06;;;;;;;;;;;19.20;82.90;;;;;;6100960;23;19905;-67
2022/11/24 16:32:32;;;;;;;;;;;19.30;83.00;;;;;;6100567;23;19960;-67
2022/11/24 16:34:59;;;;;;;;;;;19.20;82.90;;;;;;6126988;23;19905;-67
2022/11/24 16:37:26;;;;;;;;;;;19.20;83.00;;;;;;6126640;23;19927;-67
2022/11/24 16:39:52;;;;;;;;;;;19.20;83.20;;;;;;6126533;23;19905;-67
2022/11/24 16:42:19;;;;;;;;;;;19.20;83.40;;;;;;6100794;23;20337;-67
2022/11/24 16:44:45;;;;;;;;;;;19.20;83.50;;;;;;6126438;23;19912;-67
2022/11/24 16:47:12;;;;;;;;;;;19.20;83.50;;;;;;6126646;23;20276;-67
2022/11/24 16:49:39;;;;;;;;;;;19.20;83.60;;;;;;6126149;23;19940;-67
2022/11/24 16:52:07;;;;;;;;;;;19.10;83.60;;;;;;6126238;23;20221;-67
2022/11/24 16:54:33;;;;;;;;;;;19.10;83.60;;;;;;6101218;23;19905;-67
2022/11/24 16:57:00;;;;;;;;;;;19.00;83.80;;;;;;6126575;23;19916;-67
2022/11/24 16:59:27;;;;;;;;;;;19.00;83.90;;;;;;6126298;23;19987;-67
2022/11/24 17:01:53;;;;;;;;;;;19.00;84.10;;;;;;6126137;23;19994;-67
2022/11/24 17:04:20;;;;;;;;;;;19.00;84.10;;;;;;6100302;23;19976;-67
2022/11/24 17:06:46;;;;;;;;;;;19.00;84.10;;;;;;6100260;23;19905;-67
2022/11/24 17:09:13;;;;;;;;;;;18.90;84.10;;;;;;6126166;23;19912;-67
2022/11/24 17:11:40;;;;;;;;;;;18.90;84.20;;;;;;6126242;23;19917;-67
2022/11/24 17:14:06;;;;;;;;;;;18.90;84.30;;;;;;6126071;23;19908;-67
2022/11/24 17:16:33;;;;;;;;;;;18.80;84.30;;;;;;6126080;23;19909;-67
2022/11/24 17:19:00;;;;;;;;;;;18.80;84.20;;;;;;6125749;23;19905;-67
2022/11/24 17:21:26;;;;;;;;;;;18.80;84.30;;;;;;6125786;23;19909;-67
2022/11/24 17:23:56;;;;;;;;;;;18.80;84.30;;;;;;6126082;23;19963;-67
2022/11/24 17:26:23;;;;;;;;;;;18.80;84.10;;;;;;6126381;23;20328;-67
2022/11/24 17:28:50;;;;;;;;;;;18.80;84.10;;;;;;6100191;23;19916;-67
2022/11/24 17:31:21;;;;;;;;;;;18.80;84.10;;;;;;6125832;23;20320;-67
2022/11/24 17:33:48;;;;;;;;;;;18.80;84.20;;;;;;6100627;23;19904;-67
2022/11/24 17:36:14;;;;;;;;;;;18.80;84.20;;;;;;6100154;23;19959;-67
2022/11/24 17:38:41;;;;;;;;;;;18.80;84.40;;;;;;6125444;23;19912;-67
2022/11/24 17:41:07;;;;;;;;;;;18.70;84.50;;;;;;6126178;23;20245;-67
2022/11/24 17:43:34;;;;;;;;;;;18.70;84.50;;;;;;6098846;23;19909;-67
2022/11/24 17:46:02;;;;;;;;;;;18.70;84.70;;;;;;6125546;23;19905;-66
2022/11/24 17:48:28;;;;;;;;;;;18.70;84.70;;;;;;6125516;23;19905;-67
2022/11/24 17:51:07;;;;;;;;;;;18.70;84.70;;;;;;6125133;23;20416;-67
2022/11/24 17:53:38;;;;;;;;;;;18.70;84.60;;;;;;6099907;23;19909;-67
2022/11/24 17:56:04;;;;;;;;;;;18.70;84.70;;;;;;6099893;23;19921;-67
2022/11/24 17:58:31;;;;;;;;;;;18.70;84.70;;;;;;6125683;23;19940;-67
2022/11/24 18:00:58;;;;;;;;;;;18.60;84.70;;;;;;6125499;23;19952;-67
2022/11/24 18:03:27;;;;;;;;;;;18.60;84.80;;;;;;6099300;23;19905;-66
2022/11/24 18:05:54;;;;;;;;;;;18.60;85.00;;;;;;6125621;23;19905;-67
2022/11/24 18:08:21;;;;;;;;;;;18.60;85.00;;;;;;6100086;23;19913;-67
2022/11/24 18:10:47;;;;;;;;;;;18.60;85.00;;;;;;6125686;23;20372;-67
2022/11/24 18:13:14;;;;;;;;;;;18.60;85.20;;;;;;6125645;23;19913;-67
2022/11/24 18:15:41;;;;;;;;;;;18.60;85.30;;;;;;6125816;23;19905;-67
2022/11/24 18:18:07;;;;;;;;;;;18.50;85.40;;;;;;6125632;23;19927;-66
2022/11/24 18:20:34;;;;;;;;;;;18.50;85.70;;;;;;6125786;23;19905;-67
2022/11/24 18:23:00;;;;;;;;;;;18.40;85.80;;;;;;6125798;23;19941;-67
2022/11/24 18:25:28;;;;;;;;;;;18.40;86.10;;;;;;6125345;23;19963;-67
2022/11/24 18:27:55;;;;;;;;;;;18.30;86.10;;;;;;6125590;23;20341;-67
2022/11/24 18:30:21;;;;;;;;;;;18.30;86.30;;;;;;6099764;23;19905;-67
2022/11/24 18:32:48;;;;;;;;;;;18.30;86.20;;;;;;6125480;23;19920;-67
2022/11/24 18:35:14;;;;;;;;;;;18.30;86.20;;;;;;6099849;23;19913;-67
2022/11/24 18:37:43;;;;;;;;;;;18.20;86.10;;;;;;6099685;23;20244;-67
2022/11/24 18:40:09;;;;;;;;;;;18.20;86.20;;;;;;6125464;23;19905;-67
2022/11/24 18:42:36;;;;;;;;;;;18.30;86.20;;;;;;6125447;23;20031;-67
2022/11/24 18:45:03;;;;;;;;;;;18.30;86.20;;;;;;6125691;23;19905;-67
2022/11/24 18:47:30;;;;;;;;;;;18.30;86.30;;;;;;6099600;23;19916;-67
2022/11/24 18:49:59;;;;;;;;;;;18.30;86.20;;;;;;6100000;23;19912;-67
2022/11/24 18:52:25;;;;;;;;;;;18.30;86.10;;;;;;6127374;23;19913;-67
2022/11/24 18:54:52;;;;;;;;;;;18.30;86.00;;;;;;6127415;23;20336;-67
2022/11/24 18:57:18;;;;;;;;;;;18.30;85.90;;;;;;6101880;23;19911;-67
2022/11/24 18:59:45;;;;;;;;;;;18.30;86.00;;;;;;6127343;23;19905;-67
2022/11/24 19:02:11;;;;;;;;;;;18.30;85.90;;;;;;6127422;23;19905;-67
2022/11/24 19:04:38;;;;;;;;;;;18.40;85.90;;;;;;6128190;23;20312;-67
2022/11/24 19:07:05;;;;;;;;;;;18.40;85.70;;;;;;6127439;23;19920;-67
2022/11/24 19:09:31;;;;;;;;;;;18.50;85.50;;;;;;6101396;23;20313;-67
2022/11/24 19:11:58;;;;;;;;;;;18.50;85.30;;;;;;6127114;23;19913;-67
2022/11/24 19:14:24;;;;;;;;;;;18.60;85.20;;;;;;6127719;23;20284;-67
2022/11/24 19:16:51;;;;;;;;;;;18.70;85.30;;;;;;6101787;23;19959;-67
2022/11/24 19:19:18;;;;;;;;;;;18.80;84.80;;;;;;6126864;23;19928;-67
2022/11/24 19:21:44;;;;;;;;;;;18.80;84.30;;;;;;6126856;23;20001;-67
2022/11/24 19:24:12;;;;;;;;;;;18.80;84.30;;;;;;6101360;23;19901;-67
2022/11/24 19:26:38;;;;;;;;;;;18.80;84.30;;;;;;6101755;23;19905;-67
2022/11/24 19:29:05;;;;;;;;;;;18.80;84.40;;;;;;6127489;23;19912;-67
2022/11/24 19:31:32;;;;;;;;;;;18.80;84.40;;;;;;6127468;23;19924;-67
2022/11/24 19:33:59;;;;;;;;;;;18.80;84.60;;;;;;6127218;23;19912;-67
2022/11/24 19:36:25;;;;;;;;;;;18.80;84.50;;;;;;6127263;23;19905;-67
2022/11/24 19:38:52;;;;;;;;;;;18.90;84.60;;;;;;6126701;23;19905;-67
2022/11/24 19:41:20;;;;;;;;;;;19.00;84.70;;;;;;6101321;23;19905;-67
2022/11/24 19:43:47;;;;;;;;;;;19.10;84.60;;;;;;6101327;23;19928;-67
2022/11/24 19:46:14;;;;;;;;;;;19.10;84.40;;;;;;6100816;23;20333;-67
2022/11/24 19:48:42;;;;;;;;;;;19.20;84.10;;;;;;6126531;23;19952;-67
2022/11/24 19:51:12;;;;;;;;;;;19.20;84.00;;;;;;6126219;23;19924;-67
2022/11/24 19:53:39;;;;;;;;;;;19.20;84.30;;;;;;6127006;23;19952;-67
2022/11/24 19:56:10;;;;;;;;;;;19.30;84.10;;;;;;6126903;23;19904;-67
2022/11/24 19:58:36;;;;;;;;;;;19.30;83.50;;;;;;6126451;23;20340;-67
2022/11/24 20:01:10;;;;;;;;;;;19.30;82.90;;;;;;6126258;23;19909;-67
2022/11/24 20:03:36;;;;;;;;;;;19.40;83.00;;;;;;6100957;23;19908;-67
2022/11/24 20:06:03;;;;;;;;;;;19.40;82.80;;;;;;6100904;23;19951;-67
2022/11/24 20:08:30;;;;;;;;;;;19.50;83.10;;;;;;6100644;23;20232;-67
2022/11/24 20:11:07;;;;;;;;;;;19.50;83.10;;;;;;6126458;23;19905;-67
2022/11/24 20:13:34;;;;;;;;;;;19.60;82.90;;;;;;6126369;23;20324;-67
2022/11/24 20:16:04;;;;;;;;;;;19.70;82.70;;;;;;6101006;23;19908;-67
2022/11/24 20:18:31;;;;;;;;;;;19.60;81.90;;;;;;6100269;23;19909;-67
2022/11/24 20:21:01;;;;;;;;;;;19.70;82.20;;;;;;6126326;23;19905;-67
2022/11/24 20:23:28;;;;;;;;;;;19.70;81.60;;;;;;6126485;23;19905;-67
2022/11/24 20:25:54;;;;;;;;;;;19.70;81.00;;;;;;6126452;23;19913;-67
2022/11/24 20:28:21;;;;;;;;;;;19.70;81.30;;;;;;6126383;23;20383;-67
2022/11/24 20:30:48;;;;;;;;;;;19.70;81.70;;;;;;6126186;23;19905;-67
2022/11/24 20:33:14;;;;;;;;;;;19.80;81.10;;;;;;6126200;23;19913;-67
2022/11/24 20:35:41;;;;;;;;;;;19.90;80.90;;;;;;6126577;23;19912;-67
2022/11/24 20:38:08;;;;;;;;;;;20.00;80.90;;;;;;6100929;23;20273;-67
2022/11/24 20:40:34;;;;;;;;;;;20.00;80.50;;;;;;6126410;23;19905;-67
2022/11/24 20:43:01;;;;;;;;;;;20.10;80.20;;;;;;6126510;23;19925;-67
2022/11/24 20:45:27;;;;;;;;;;;20.20;79.80;;;;;;6126436;23;19936;-67
2022/11/24 20:47:54;;;;;;;;;;;20.30;79.90;;;;;;6126368;23;19908;-67
2022/11/24 20:50:20;;;;;;;;;;;20.30;79.10;;;;;;6126262;23;19948;-67
2022/11/24 20:52:47;;;;;;;;;;;20.40;79.90;;;;;;6126063;23;19949;-67
2022/11/24 20:55:14;;;;;;;;;;;20.50;78.70;;;;;;6127060;23;19988;-67
2022/11/24 20:57:40;;;;;;;;;;;20.70;79.10;;;;;;6076655;23;20273;-67
2022/11/24 21:00:09;;;;;;;;;;;20.80;78.00;;;;;;6126039;23;19905;-67
2022/11/24 21:02:36;;;;;;;;;;;20.90;76.50;;;;;;6124652;23;19932;-67
2022/11/24 21:05:03;;;;;;;;;;;21.00;76.40;;;;;;6125886;23;19968;-68
2022/11/24 21:07:29;;;;;;;;;;;21.10;75.60;;;;;;6100084;23;19905;-68
2022/11/24 21:09:56;;;;;;;;;;;21.20;75.60;;;;;;6125601;23;19984;-67
2022/11/24 21:12:22;;;;;;;;;;;21.20;75.30;;;;;;6125732;23;19967;-67
2022/11/24 21:14:49;;;;;;;;;;;21.30;75.30;;;;;;6099967;23;19905;-67
2022/11/24 21:17:15;;;;;;;;;;;21.30;75.20;;;;;;6126049;23;19905;-67
2022/11/24 21:19:42;;;;;;;;;;;21.30;74.80;;;;;;6126138;23;19905;-67
2022/11/24 21:22:09;;;;;;;;;;;21.30;75.10;;;;;;6126238;23;19913;-67
2022/11/24 21:24:35;;;;;;;;;;;21.40;75.70;;;;;;6125769;23;19912;-67
2022/11/24 21:27:02;;;;;;;;;;;21.40;74.70;;;;;;6125895;23;19975;-67
2022/11/24 21:29:28;;;;;;;;;;;21.40;74.70;;;;;;6125779;23;19916;-67
2022/11/24 21:31:55;;;;;;;;;;;21.40;74.10;;;;;;6100208;23;20277;-67
2022/11/24 21:34:21;;;;;;;;;;;21.50;74.10;;;;;;6126112;23;19905;-67
2022/11/24 21:36:48;;;;;;;;;;;21.50;74.30;;;;;;6126084;23;19904;-67
2022/11/24 21:39:15;;;;;;;;;;;21.50;73.70;;;;;;6125853;23;19995;-67
2022/11/24 21:41:42;;;;;;;;;;;21.40;73.70;;;;;;6125400;23;19905;-67
2022/11/24 21:44:10;;;;;;;;;;;21.50;73.80;;;;;;6124131;23;19928;-67
2022/11/24 21:46:36;;;;;;;;;;;21.50;73.20;;;;;;6125583;23;19905;-67
2022/11/24 21:49:03;;;;;;;;;;;21.70;73.10;;;;;;6126215;23;19952;-67
2022/11/24 21:51:30;;;;;;;;;;;21.80;72.80;;;;;;6125316;23;19923;-67
2022/11/24 21:53:56;;;;;;;;;;;21.80;71.60;;;;;;6125581;23;19905;-67
2022/11/24 21:56:23;;;;;;;;;;;21.90;71.10;;;;;;6125626;23;19905;-67
2022/11/24 21:58:50;;;;;;;;;;;22.00;72.00;;;;;;6125554;23;19905;-67
2022/11/24 22:01:18;;;;;;;;;;;22.20;71.30;;;;;;6126056;23;19904;-67
2022/11/24 22:03:44;;;;;;;;;;;22.30;70.30;;;;;;6099890;23;19905;-67
2022/11/24 22:06:11;;;;;;;;;;;22.30;70.00;;;;;;6125960;23;19909;-67